ADDS METAR Data INFO
IDs: Format: Raw Decoded Include TAF

Data at: 0850 UTC 22 Feb 2018

PAMK 220838Z AUTO 20011KT 10SM BKN014 OVC019 00/M01 A2987 RMK AO2 FZRANO $
PAMK 220756Z AUTO 22016KT 10SM FEW010 BKN018 00/M01 A2988 RMK AO2 PK WND 22026/0722 RAE0659UPB0659E30 SLP121 P0000 T00001011 FZRANO $
PAMK 220730Z AUTO 22020G26KT 10SM FEW009 OVC021 00/M01 A2987 RMK AO2 PK WND 22026/0722 RAE0659UPB0659E30 P0000 FZRANO $
PAMK 220723Z AUTO 22021G26KT 10SM UP FEW011 SCT014 OVC021 00/M01 A2987 RMK AO2 PK WND 22026/0722 RAE0659UPB0659 P0000 FZRANO $
PAMK 220710Z AUTO 22020G23KT 6SM UP BR BKN011 OVC017 00/M01 A2988 RMK AO2 RAE0659UPB0659 CIG 007V013 P0000 FZRANO $
PAMK 220656Z AUTO 22020KT 2 1/2SM -RA BR OVC011 00/M01 A2988 RMK AO2 PK WND 22027/0644 UPB0557E18RAB18 SLP121 P0000 T00001006 FZRANO $
PAMK 220625Z AUTO 22018KT 4SM -RA BR BKN006 OVC011 01/M01 A2988 RMK AO2 UPB0557E18RAB18 CIG 003V008 P0000 FZRANO $
PAMK 220610Z AUTO 22015KT 4SM UP BR BKN005 OVC015 01/M01 A2988 RMK AO2 UPB0557 CIG 003V008 P0000 FZRANO $
PAMK 220556Z AUTO 23012KT 9SM FEW009 OVC015 01/M01 A2989 RMK AO2 SLP124 T00111006 10022 20011 55007 FZRANO $
PAMK 220526Z AUTO 20016KT 10SM BKN020 01/M01 A2988 RMK AO2 FZRANO $
PAMK 220456Z AUTO 18018G25KT 10SM FEW034 SCT110 02/M01 A2987 RMK AO2 SLP120 T00171006 FZRANO $
PAMK 220411Z AUTO 17017KT 10SM SCT014 BKN042 OVC110 02/M01 A2989 RMK AO2 FZRANO $
PAMK 220356Z AUTO 17018KT 10SM BKN014 OVC060 02/00 A2990 RMK AO2 SLP129 T00170000 FZRANO $
PAMK 220353Z AUTO 17017KT 10SM OVC014 02/00 A2991 RMK AO2 FZRANO $
PAMK 212356Z AUTO 19014KT 10SM SCT100 BKN120 02/00 A2999 RMK AO2 SLP160 T00220000 10022 20011 58017 FZRANO $
PAMK 212256Z AUTO 20013KT 10SM FEW025 OVC100 02/00 A3003 RMK AO2 SLP174 T00170000 FZRANO $
PAMK 212248Z AUTO 19012KT 10SM SCT025 OVC100 02/00 A3004 RMK AO2 FZRANO $
PAMK 212156Z AUTO 20012KT 10SM OVC021 02/00 A3005 RMK AO2 SLP181 T00170000 FZRANO $
PAMK 212056Z AUTO 21012KT 10SM OVC017 01/M01 A3004 RMK AO2 SLP177 T00111006 58001 FZRANO $
PAMK 212025Z AUTO 19014KT 10SM OVC015 01/M01 A3005 RMK AO2 FZRANO $
PAMK 212009Z AUTO 19014KT 10SM OVC013 01/M01 A3005 RMK AO2 FZRANO $
PAMK 211956Z AUTO 19016KT 10SM OVC015 01/M01 A3005 RMK AO2 SLP178 T00111006 FZRANO $
PAMK 211856Z AUTO 18021KT 10SM OVC017 01/M01 A3005 RMK AO2 PK WND 17028/1757 SLP180 T00111011 FZRANO $
PAMK 211756Z AUTO 17024G29KT 10SM OVC023 01/M02 A3005 RMK AO2 PK WND 17031/1729 UPB11E34 SLP179 P0000 60000 T00111017 10011 21011 58021 FZRANO $
PAMK 211656Z AUTO 15008KT 10SM OVC029 00/M02 A3009 RMK AO2 SNE22 SLP191 P0000 T00001017 FZRANO $
PAMK 211652Z AUTO 14007KT 10SM OVC029 00/M02 A3008 RMK AO2 SNE22 P0000 FZRANO $
PAMK 211609Z AUTO 12013KT 9SM -SN SCT030 OVC043 M01/M02 A3010 RMK AO2 P0000 FZRANO $
PAMK 211556Z AUTO 11011KT 6SM -SN BR BKN028 OVC037 M01/M02 A3011 RMK AO2 SLP200 P0000 T10111022 FZRANO $
PAMK 211530Z AUTO 11014KT 3SM -SN BR SCT019 OVC026 M01/M02 A3012 RMK AO2 P0000 FZRANO $
PAMK 211522Z AUTO 11016KT 2 1/2SM -SN BR SCT019 OVC026 M01/M02 A3013 RMK AO2 P0000 FZRANO $
PAMK 211505Z AUTO 11014KT 1 1/2SM -SN BR BKN019 OVC024 M01/M02 A3014 RMK AO2 P0000 FZRANO $
PAMK 211456Z AUTO 11016KT 2SM -SN BR SCT016 OVC024 M01/M02 A3015 RMK AO2 SLP214 P0000 60000 T10111022 56026 FZRANO $
PAMK 211452Z AUTO 11017KT 2SM -SN BR BKN016 OVC022 M01/M02 A3015 RMK AO2 P0000 FZRANO $
PAMK 211424Z AUTO 13019KT 1 3/4SM -SN BR BKN018 BKN025 OVC031 M01/M02 A3017 RMK AO2 P0000 FZRANO $
PAMK 211411Z AUTO 13018KT 3SM -SN BR SCT016 BKN025 OVC045 M01/M02 A3018 RMK AO2 P0000 FZRANO $
PAMK 211356Z AUTO 13019KT 1 1/2SM -SN BR OVC016 M01/M02 A3019 RMK AO2 SLP226 P0000 T10111017 FZRANO $
PAMK 211351Z AUTO 13017KT 1 1/4SM -SN BR OVC016 M01/M02 A3019 RMK AO2 PRESFR P0000 FZRANO $
PAMK 211346Z AUTO 13016KT 1SM -SN BR BKN014 OVC019 M01/M02 A3020 RMK AO2 P0000 FZRANO $
PAMK 211316Z AUTO 13016KT 1 1/2SM -SN BR OVC021 M01/M02 A3022 RMK AO2 P0000 FZRANO $
PAMK 210756Z AUTO 17010KT 10SM OVC050 M01/M04 A3035 RMK AO2 SLP282 T10111039 FZRANO $
PAMK 210656Z AUTO 18011KT 10SM OVC050 M01/M04 A3036 RMK AO2 SLP285 T10061039 FZRANO $
PAMK 210556Z AUTO 18012KT 10SM OVC050 M01/M04 A3037 RMK AO2 SLP288 T10061039 10011 21006 58011 FZRANO $